createdAt,value
2019-06-07T00:00:29.679Z,99.90
2019-06-07T00:03:00.297Z,99.90
2019-06-07T00:05:29.000Z,99.90
2019-06-07T00:08:07.749Z,99.90
2019-06-07T00:10:36.490Z,99.90
2019-06-07T00:12:58.174Z,99.90
2019-06-07T00:15:28.923Z,99.90
2019-06-07T00:17:57.112Z,99.90
2019-06-07T00:20:25.912Z,99.90
2019-06-07T00:22:54.703Z,99.90
2019-06-07T00:25:24.548Z,99.90
2019-06-07T00:27:53.535Z,99.90
2019-06-07T00:30:44.623Z,99.90
2019-06-07T00:32:53.114Z,99.90
2019-06-07T00:35:22.504Z,99.90
2019-06-07T00:37:51.186Z,99.90
2019-06-07T00:40:30.001Z,99.90
2019-06-07T00:42:50.008Z,99.90
2019-06-07T00:45:21.865Z,99.90
2019-06-07T00:47:49.080Z,99.90
2019-06-07T00:50:21.043Z,99.90
2019-06-07T00:55:20.637Z,99.90
2019-06-07T00:57:49.195Z,99.90
2019-06-07T01:00:23.261Z,99.90
2019-06-07T01:02:48.579Z,99.90
2019-06-07T01:05:20.327Z,99.90
2019-06-07T01:07:47.357Z,99.90
2019-06-07T01:10:22.887Z,99.90
2019-06-07T01:12:47.080Z,99.90
2019-06-07T01:15:18.187Z,99.90
2019-06-07T01:18:25.959Z,99.90
2019-06-07T01:20:21.221Z,99.90
2019-06-07T01:22:48.072Z,99.90
2019-06-07T01:25:18.320Z,99.90
2019-06-07T01:27:47.520Z,99.90
2019-06-07T01:30:18.615Z,99.90
2019-06-07T01:32:47.099Z,99.90
2019-06-07T01:35:16.582Z,99.90
2019-06-07T01:37:45.590Z,99.90
2019-06-07T01:40:16.978Z,99.90
2019-06-07T01:42:45.654Z,99.90
2019-06-07T01:45:14.607Z,99.90
2019-06-07T01:47:43.085Z,99.90
2019-06-07T01:50:12.240Z,99.90
2019-06-07T01:52:40.958Z,99.90
2019-06-07T01:55:11.096Z,99.90
2019-06-07T01:57:47.953Z,99.90
2019-06-07T02:00:10.895Z,99.90
2019-06-07T02:02:39.747Z,99.90
2019-06-07T02:05:08.756Z,99.90
2019-06-07T02:07:37.322Z,99.90
2019-06-07T02:10:06.775Z,99.90
2019-06-07T02:12:42.865Z,99.90
2019-06-07T02:15:09.848Z,99.90
2019-06-07T02:17:39.217Z,99.90
2019-06-07T02:20:08.435Z,99.90
2019-06-07T02:22:36.896Z,99.90
2019-06-07T02:25:37.224Z,99.90
2019-06-07T02:27:40.568Z,99.90
2019-06-07T02:30:36.674Z,99.90
2019-06-07T02:32:41.347Z,99.90
2019-06-07T02:35:10.463Z,99.90
2019-06-07T02:37:38.899Z,99.90
2019-06-07T02:40:08.598Z,99.90
2019-06-07T02:42:42.225Z,99.90
2019-06-07T02:45:10.845Z,99.90
2019-06-07T02:47:39.131Z,99.90
2019-06-07T02:50:11.266Z,99.90
2019-06-07T02:52:41.472Z,99.90
2019-06-07T02:55:11.350Z,99.90
2019-06-07T02:57:41.584Z,99.90
2019-06-07T03:00:41.867Z,99.90
2019-06-07T03:02:46.739Z,99.90
2019-06-07T03:05:15.203Z,99.90
2019-06-07T03:07:47.232Z,99.90
2019-06-07T03:10:16.427Z,99.90
2019-06-07T03:12:47.684Z,99.90
2019-06-07T03:15:32.841Z,99.90
2019-06-07T03:17:50.818Z,99.90
2019-06-07T03:20:24.230Z,99.90
2019-06-07T03:22:52.882Z,99.90
2019-06-07T03:25:21.314Z,99.90
2019-06-07T03:27:50.778Z,99.90
2019-06-07T03:30:41.640Z,99.90
2019-06-07T03:32:50.090Z,99.90
2019-06-07T03:35:18.987Z,99.90
2019-06-07T03:37:47.454Z,99.90
2019-06-07T03:40:16.049Z,99.90
2019-06-07T03:42:44.499Z,99.90
2019-06-07T03:45:13.202Z,99.90
2019-06-07T03:47:43.029Z,99.90
2019-06-07T03:50:12.294Z,99.90
2019-06-07T03:52:41.803Z,99.90
2019-06-07T03:55:10.617Z,99.90
2019-06-07T03:58:29.211Z,99.90
2019-06-07T04:00:10.482Z,99.90
2019-06-07T04:02:41.995Z,99.90
2019-06-07T04:05:09.519Z,99.90
2019-06-07T04:07:43.752Z,99.90
2019-06-07T04:10:08.859Z,99.90
2019-06-07T04:12:41.169Z,99.90
2019-06-07T04:15:08.123Z,99.90
2019-06-07T04:17:41.131Z,99.90
2019-06-07T04:20:07.515Z,99.90
2019-06-07T04:22:39.841Z,99.90
2019-06-07T04:25:11.499Z,99.90
2019-06-07T04:27:41.328Z,99.90
2019-06-07T04:30:10.770Z,99.90
2019-06-07T04:32:44.189Z,99.90
2019-06-07T04:35:10.495Z,99.90
2019-06-07T04:37:41.479Z,99.90
2019-06-07T04:40:10.224Z,99.90
2019-06-07T04:42:44.792Z,99.90
2019-06-07T04:45:32.445Z,99.90
2019-06-07T04:47:44.646Z,99.90
2019-06-07T04:50:14.580Z,99.90
2019-06-07T04:52:45.333Z,99.90
2019-06-07T04:55:13.921Z,99.90
2019-06-07T04:57:43.200Z,99.90
2019-06-07T05:00:46.145Z,99.90
2019-06-07T05:02:43.434Z,99.90
2019-06-07T05:05:12.587Z,99.90
2019-06-07T05:07:46.085Z,99.90
2019-06-07T05:10:11.946Z,99.90
2019-06-07T05:12:44.170Z,99.90
2019-06-07T05:15:11.187Z,99.90
2019-06-07T05:17:43.284Z,99.90
2019-06-07T05:20:10.417Z,99.90
2019-06-07T05:22:42.526Z,99.90
2019-06-07T05:25:09.615Z,99.90
2019-06-07T05:27:41.192Z,99.90
2019-06-07T05:30:36.639Z,99.90
2019-06-07T05:32:43.661Z,99.90
2019-06-07T05:35:12.752Z,99.90
2019-06-07T05:37:45.605Z,99.90
2019-06-07T05:40:14.345Z,99.90
2019-06-07T05:42:46.455Z,99.90
2019-06-07T05:45:16.315Z,99.90
2019-06-07T05:47:50.875Z,99.90
2019-06-07T05:50:38.495Z,99.90
2019-06-07T05:52:47.561Z,99.90
2019-06-07T05:55:16.304Z,99.90
2019-06-07T05:57:49.146Z,99.90
2019-06-07T06:00:15.440Z,99.90
2019-06-07T06:03:00.261Z,99.90
2019-06-07T06:05:32.568Z,99.90
2019-06-07T06:07:50.225Z,99.90
2019-06-07T06:10:14.942Z,99.90
2019-06-07T06:12:51.093Z,99.90
2019-06-07T06:15:13.759Z,99.90
2019-06-07T06:17:46.051Z,99.90
2019-06-07T06:20:13.010Z,99.90
2019-06-07T06:22:44.837Z,99.90
2019-06-07T06:28:05.966Z,99.90
2019-06-07T06:30:14.116Z,99.90
2019-06-07T06:32:50.972Z,99.90
2019-06-07T06:35:13.420Z,99.90
2019-06-07T06:37:46.399Z,99.90
2019-06-07T06:40:14.309Z,99.90
2019-06-07T06:42:44.686Z,99.90
2019-06-07T06:45:13.829Z,99.90
2019-06-07T06:47:43.328Z,99.90
2019-06-07T06:50:13.447Z,99.90
2019-06-07T06:52:44.049Z,99.90
2019-06-07T06:55:13.156Z,99.90
2019-06-07T06:57:41.866Z,99.90
2019-06-07T07:00:13.131Z,99.90
2019-06-07T07:03:33.054Z,99.90
2019-06-07T07:05:13.270Z,99.90
2019-06-07T07:07:42.743Z,99.90
2019-06-07T07:10:12.391Z,99.90
2019-06-07T07:12:40.822Z,99.90
2019-06-07T07:15:17.126Z,99.90
2019-06-07T07:17:54.001Z,99.90
2019-06-07T07:20:16.133Z,99.90
2019-06-07T07:22:47.886Z,99.90
2019-06-07T07:25:15.855Z,99.90
2019-06-07T07:27:44.654Z,99.90
2019-06-07T07:30:36.032Z,99.90
2019-06-07T07:32:45.585Z,99.90
2019-06-07T07:35:14.454Z,99.90
2019-06-07T07:37:45.415Z,99.90
2019-06-07T07:40:55.409Z,99.90
2019-06-07T07:42:45.217Z,99.90
2019-06-07T07:45:14.249Z,99.90
2019-06-07T07:48:01.821Z,99.90
2019-06-07T07:50:13.706Z,99.90
2019-06-07T07:52:42.166Z,99.90
2019-06-07T07:55:10.885Z,99.90
2019-06-07T07:57:39.458Z,99.90
2019-06-07T08:00:48.591Z,99.90
2019-06-07T08:02:39.148Z,99.90
2019-06-07T08:05:23.480Z,99.90
2019-06-07T08:07:38.996Z,99.90
2019-06-07T08:10:08.219Z,99.90
2019-06-07T08:12:55.513Z,99.90
2019-06-07T08:15:07.983Z,99.90
2019-06-07T08:17:36.742Z,99.90
2019-06-07T08:20:07.700Z,99.90
2019-06-07T08:22:36.163Z,99.90
2019-06-07T08:25:06.862Z,99.90
2019-06-07T08:27:35.690Z,99.90
2019-06-07T08:30:35.105Z,99.90
2019-06-07T08:32:38.191Z,99.90
2019-06-07T08:35:08.015Z,99.90
2019-06-07T08:40:08.686Z,99.90
2019-06-07T08:42:58.174Z,99.90
2019-06-07T08:45:08.899Z,99.90
2019-06-07T08:47:37.411Z,99.90
2019-06-07T08:50:11.356Z,99.90
2019-06-07T08:52:40.173Z,99.90
2019-06-07T08:55:09.056Z,99.90
2019-06-07T08:57:37.811Z,99.90
2019-06-07T09:00:42.297Z,99.90
2019-06-07T09:02:40.827Z,99.90
2019-06-07T09:05:12.339Z,99.90
2019-06-07T09:07:40.098Z,99.90
2019-06-07T09:10:14.466Z,99.90
2019-06-07T09:12:39.839Z,99.90
2019-06-07T09:15:20.467Z,99.90
2019-06-07T09:18:29.558Z,99.90
2019-06-07T09:20:35.225Z,99.90
2019-06-07T09:22:44.535Z,99.90
2019-06-07T09:25:21.141Z,99.90
2019-06-07T09:27:44.324Z,99.90
2019-06-07T09:30:18.531Z,99.40
2019-06-07T09:32:43.559Z,98.10
2019-06-07T09:35:17.594Z,96.60
2019-06-07T09:40:24.853Z,95.30
2019-06-07T09:42:43.709Z,95.60
2019-06-07T09:45:14.183Z,96.00
2019-06-07T09:47:43.095Z,96.20
2019-06-07T09:50:12.614Z,93.70
2019-06-07T09:52:58.112Z,93.90
2019-06-07T09:55:22.990Z,94.50
2019-06-07T09:57:41.999Z,90.70
2019-06-07T10:00:39.766Z,90.80
2019-06-07T10:02:47.504Z,90.00
2019-06-07T10:05:16.614Z,90.00
2019-06-07T10:08:00.003Z,87.70
2019-06-07T10:12:46.585Z,84.50
2019-06-07T10:15:15.261Z,83.00
2019-06-07T10:17:44.186Z,86.90
2019-06-07T10:20:13.142Z,87.40
2019-06-07T10:22:41.952Z,86.00
2019-06-07T10:25:10.769Z,85.70
2019-06-07T10:27:39.313Z,87.70
2019-06-07T10:30:10.258Z,86.30
2019-06-07T10:32:39.004Z,84.80
2019-06-07T10:35:11.329Z,82.50
2019-06-07T10:37:39.005Z,80.60
2019-06-07T10:40:09.266Z,81.20
2019-06-07T10:42:38.351Z,79.70
2019-06-07T10:45:08.226Z,80.80
2019-06-07T10:47:37.937Z,78.70
2019-06-07T10:50:08.116Z,74.60
2019-06-07T10:52:37.143Z,73.20
2019-06-07T10:55:06.822Z,70.30
2019-06-07T10:57:35.338Z,72.90
2019-06-07T11:00:07.441Z,72.40
2019-06-07T11:02:36.241Z,71.40
2019-06-07T11:05:08.117Z,70.50
2019-06-07T11:07:36.777Z,72.80
2019-06-07T11:10:10.986Z,69.80
2019-06-07T11:12:36.771Z,71.40
2019-06-07T11:15:08.661Z,69.60
2019-06-07T11:17:37.759Z,69.10
2019-06-07T11:20:08.395Z,69.30
2019-06-07T11:22:37.211Z,68.00
2019-06-07T11:25:09.084Z,69.40
2019-06-07T11:27:37.291Z,68.70
2019-06-07T11:30:08.411Z,68.40
2019-06-07T11:32:37.076Z,69.20
2019-06-07T11:35:08.499Z,71.30
2019-06-07T11:37:37.494Z,68.80
2019-06-07T11:40:24.009Z,67.70
2019-06-07T11:42:38.483Z,68.50
2019-06-07T11:45:07.973Z,67.50
2019-06-07T11:47:37.683Z,68.20
2019-06-07T11:50:09.634Z,65.50
2019-06-07T11:52:39.214Z,67.10
2019-06-07T11:55:09.244Z,67.80
2019-06-07T11:57:38.399Z,68.40
2019-06-07T12:00:13.934Z,67.90
2019-06-07T12:02:42.859Z,63.60
2019-06-07T12:05:16.216Z,63.10
2019-06-07T12:07:43.305Z,63.00
2019-06-07T12:10:16.572Z,61.70
2019-06-07T12:12:44.136Z,63.80
2019-06-07T12:15:14.852Z,63.00
2019-06-07T12:17:43.426Z,64.00
2019-06-07T12:20:16.636Z,63.40
2019-06-07T12:22:45.214Z,62.80
2019-06-07T12:25:19.060Z,60.20
2019-06-07T12:27:44.287Z,58.60
2019-06-07T12:30:20.330Z,57.80
2019-06-07T12:32:43.715Z,56.90
2019-06-07T12:35:13.513Z,56.70
2019-06-07T12:37:44.877Z,55.90
2019-06-07T12:40:19.370Z,55.90
2019-06-07T12:42:44.427Z,55.20
2019-06-07T12:45:23.205Z,55.40
2019-06-07T12:47:43.864Z,53.80
2019-06-07T12:50:13.480Z,53.50
2019-06-07T12:52:42.524Z,55.20
2019-06-07T12:55:11.506Z,53.50
2019-06-07T12:57:39.948Z,51.60
2019-06-07T13:00:10.748Z,52.20
2019-06-07T13:02:39.271Z,52.00
2019-06-07T13:05:08.353Z,51.60
2019-06-07T13:07:37.168Z,52.00
2019-06-07T13:10:06.924Z,52.70
2019-06-07T13:12:35.601Z,50.30
2019-06-07T13:15:05.912Z,50.30
2019-06-07T13:17:34.632Z,49.20
2019-06-07T13:20:03.527Z,48.30
2019-06-07T13:22:32.318Z,49.90
2019-06-07T13:25:01.042Z,51.70
2019-06-07T13:27:33.318Z,52.80
2019-06-07T13:30:00.171Z,51.70
2019-06-07T13:32:28.631Z,48.80
2019-06-07T13:34:57.364Z,49.10
2019-06-07T13:37:25.823Z,49.30
2019-06-07T13:39:54.273Z,47.50
2019-06-07T13:42:23.055Z,46.30
2019-06-07T13:44:51.647Z,46.40
2019-06-07T13:47:21.055Z,45.20
2019-06-07T13:49:49.818Z,45.70
2019-06-07T13:52:18.320Z,47.20
2019-06-07T13:54:47.086Z,46.70
2019-06-07T13:57:15.525Z,46.10
2019-06-07T13:59:45.538Z,45.60
2019-06-07T14:02:13.983Z,45.80
2019-06-07T14:04:42.679Z,45.30
2019-06-07T14:07:11.297Z,45.30
2019-06-07T14:09:39.742Z,44.20
2019-06-07T14:12:08.255Z,44.20
2019-06-07T14:14:37.083Z,43.10
2019-06-07T14:17:05.976Z,43.70
2019-06-07T14:19:34.421Z,43.70
2019-06-07T14:22:03.002Z,43.60
2019-06-07T14:24:31.978Z,44.10
2019-06-07T14:27:06.169Z,42.70
2019-06-07T14:29:38.786Z,41.70
2019-06-07T14:32:08.157Z,44.30
2019-06-07T14:34:36.838Z,45.30
2019-06-07T14:37:06.692Z,48.10
2019-06-07T14:39:35.534Z,51.20
2019-06-07T14:42:10.034Z,52.80
2019-06-07T14:44:34.767Z,52.80
2019-06-07T14:47:03.292Z,52.50
2019-06-07T14:49:32.758Z,55.60
2019-06-07T14:52:01.541Z,53.50
2019-06-07T14:54:32.286Z,54.50
2019-06-07T14:57:03.074Z,56.60
2019-06-07T14:59:30.598Z,57.30
2019-06-07T15:01:59.598Z,58.10
2019-06-07T15:04:28.568Z,59.80
2019-06-07T15:06:57.183Z,60.60
2019-06-07T15:09:26.931Z,59.60
2019-06-07T15:11:56.177Z,60.10
2019-06-07T15:14:24.645Z,61.00
2019-06-07T15:16:53.146Z,62.70
2019-06-07T15:19:24.035Z,63.40
2019-06-07T15:21:51.759Z,66.10
2019-06-07T15:24:20.299Z,67.20
2019-06-07T15:26:49.122Z,68.00
2019-06-07T15:29:17.782Z,67.20
2019-06-07T15:31:46.296Z,68.10
2019-06-07T15:34:15.004Z,69.40
2019-06-07T15:36:43.480Z,70.20
2019-06-07T15:39:12.209Z,71.70
2019-06-07T15:41:40.712Z,69.70
2019-06-07T15:44:09.170Z,70.50
2019-06-07T15:46:37.979Z,72.70
2019-06-07T15:49:06.736Z,76.10
2019-06-07T15:51:36.540Z,78.20
2019-06-07T15:54:05.598Z,79.00
2019-06-07T15:56:34.629Z,80.50
2019-06-07T15:59:03.414Z,80.80
2019-06-07T16:01:33.510Z,82.50
2019-06-07T16:04:02.629Z,84.60
2019-06-07T16:06:34.071Z,86.30
2019-06-07T16:09:02.846Z,87.40
2019-06-07T16:11:32.709Z,86.60
2019-06-07T16:14:01.490Z,87.30
2019-06-07T16:16:30.267Z,91.60
2019-06-07T16:18:58.877Z,99.90
2019-06-07T16:21:27.769Z,99.90
2019-06-07T16:23:56.207Z,99.90
2019-06-07T16:26:24.962Z,99.90
2019-06-07T16:28:57.069Z,99.90
2019-06-07T16:31:23.918Z,99.90
2019-06-07T16:33:52.722Z,99.90
2019-06-07T16:36:21.504Z,99.90
2019-06-07T16:38:50.203Z,99.90
2019-06-07T16:41:19.003Z,99.90
2019-06-07T16:43:49.003Z,99.90
2019-06-07T16:46:17.531Z,99.90
2019-06-07T16:48:46.330Z,99.90
2019-06-07T16:51:14.786Z,99.90
2019-06-07T16:53:44.461Z,99.90
2019-06-07T16:56:13.163Z,99.90
2019-06-07T16:58:42.295Z,99.90
2019-06-07T17:01:11.239Z,99.90
2019-06-07T17:03:39.692Z,99.90
2019-06-07T17:06:08.455Z,99.90
2019-06-07T17:08:38.005Z,99.90
2019-06-07T17:11:06.871Z,99.90
2019-06-07T17:13:35.345Z,99.90
2019-06-07T17:16:04.270Z,99.90
2019-06-07T17:18:36.798Z,99.90
2019-06-07T17:21:03.265Z,99.90
2019-06-07T17:23:32.267Z,99.90
2019-06-07T17:26:00.716Z,99.90
2019-06-07T17:28:29.511Z,99.90
2019-06-07T17:30:57.959Z,99.90
2019-06-07T17:33:26.462Z,99.90
2019-06-07T17:35:54.942Z,99.90
2019-06-07T17:38:23.699Z,99.90
2019-06-07T17:40:52.498Z,99.90
2019-06-07T17:43:21.142Z,99.90
2019-06-07T17:45:49.894Z,99.90
2019-06-07T17:48:18.623Z,99.90
2019-06-07T17:50:49.890Z,99.90
2019-06-07T17:53:18.854Z,99.90
2019-06-07T17:55:48.186Z,99.90
2019-06-07T17:58:16.813Z,99.90
2019-06-07T18:00:48.832Z,99.90
2019-06-07T18:03:17.934Z,99.90
2019-06-07T18:05:49.301Z,99.90
2019-06-07T18:08:18.193Z,99.90
2019-06-07T18:10:47.839Z,99.90
2019-06-07T18:13:16.756Z,99.90
2019-06-07T18:15:51.718Z,99.90
2019-06-07T18:18:18.064Z,99.90
2019-06-07T18:20:47.301Z,99.90
2019-06-07T18:23:16.372Z,99.90
2019-06-07T18:25:46.309Z,99.90
2019-06-07T18:28:15.156Z,99.90
2019-06-07T18:30:43.765Z,99.90
2019-06-07T18:33:12.502Z,99.90
2019-06-07T18:35:40.967Z,99.90
2019-06-07T18:38:10.882Z,99.90
2019-06-07T18:40:40.641Z,99.90
2019-06-07T18:43:09.660Z,99.90
2019-06-07T18:45:39.638Z,99.90
2019-06-07T18:48:08.153Z,99.90
2019-06-07T18:50:36.820Z,99.90
2019-06-07T18:53:05.513Z,99.90
2019-06-07T18:55:34.017Z,99.90
2019-06-07T18:58:02.633Z,99.90
2019-06-07T19:00:31.973Z,99.90
2019-06-07T19:03:00.674Z,99.90
2019-06-07T19:05:29.571Z,99.90
2019-06-07T19:07:59.862Z,99.90
2019-06-07T19:10:28.480Z,99.90
2019-06-07T19:12:57.439Z,99.90
2019-06-07T19:15:26.871Z,99.90
2019-06-07T19:17:56.115Z,99.90
2019-06-07T19:20:25.230Z,99.90
2019-06-07T19:22:56.518Z,99.90
2019-06-07T19:25:25.523Z,99.90
2019-06-07T19:27:54.929Z,99.90
2019-06-07T19:30:24.376Z,99.90
2019-06-07T19:32:53.248Z,99.90
2019-06-07T19:35:22.357Z,99.90
2019-06-07T19:37:51.781Z,99.90
2019-06-07T19:40:20.520Z,99.90
2019-06-07T19:42:49.239Z,99.90
2019-06-07T19:45:30.138Z,99.90
2019-06-07T19:47:48.896Z,99.90
2019-06-07T19:50:18.599Z,99.90
2019-06-07T19:52:47.467Z,99.90
2019-06-07T19:55:17.016Z,99.90
2019-06-07T19:57:45.500Z,99.90
2019-06-07T20:00:14.937Z,99.90
2019-06-07T20:02:43.430Z,99.90
2019-06-07T20:05:15.514Z,99.90
2019-06-07T20:07:44.083Z,99.90
2019-06-07T20:10:14.117Z,99.90
2019-06-07T20:12:42.697Z,99.90
2019-06-07T20:15:27.851Z,99.90
2019-06-07T20:17:43.382Z,99.90
2019-06-07T20:20:12.674Z,99.90
2019-06-07T20:22:41.485Z,99.90
2019-06-07T20:25:11.819Z,99.90
2019-06-07T20:27:40.614Z,99.90
2019-06-07T20:30:10.563Z,99.90
2019-06-07T20:32:39.351Z,99.90
2019-06-07T20:35:08.520Z,99.90
2019-06-07T20:37:37.571Z,99.90
2019-06-07T20:40:23.446Z,99.90
2019-06-07T20:42:41.059Z,99.90
2019-06-07T20:45:09.826Z,99.90
2019-06-07T20:47:41.581Z,99.90
2019-06-07T20:50:11.621Z,99.90
2019-06-07T20:52:40.413Z,99.90
2019-06-07T20:55:09.801Z,99.90
2019-06-07T20:57:38.490Z,99.90
2019-06-07T21:00:14.262Z,99.90
2019-06-07T21:02:39.238Z,99.90
2019-06-07T21:05:09.878Z,99.90
2019-06-07T21:07:39.068Z,99.90
2019-06-07T21:10:08.970Z,99.90
2019-06-07T21:12:38.676Z,99.90
2019-06-07T21:15:12.201Z,99.90
2019-06-07T21:17:37.944Z,99.90
2019-06-07T21:20:10.285Z,99.90
2019-06-07T21:22:37.986Z,99.90
2019-06-07T21:25:09.234Z,99.90
2019-06-07T21:27:37.916Z,99.90
2019-06-07T21:30:09.509Z,99.90
2019-06-07T21:32:38.264Z,99.90
2019-06-07T21:35:08.207Z,99.90
2019-06-07T21:37:36.982Z,99.90
2019-06-07T21:40:06.142Z,99.90
2019-06-07T21:42:34.837Z,99.90
2019-06-07T21:45:06.296Z,99.90
2019-06-07T21:47:35.040Z,99.90
2019-06-07T21:50:06.625Z,99.90
2019-06-07T21:52:35.255Z,99.90
2019-06-07T21:55:06.919Z,99.90
2019-06-07T21:57:36.294Z,99.90
2019-06-07T22:00:13.519Z,99.90
2019-06-07T22:02:42.602Z,99.90
2019-06-07T22:05:11.793Z,99.90
2019-06-07T22:07:40.707Z,99.90
2019-06-07T22:10:10.173Z,99.90
2019-06-07T22:12:38.703Z,99.90
2019-06-07T22:15:23.242Z,99.90
2019-06-07T22:17:38.583Z,99.90
2019-06-07T22:20:08.687Z,99.90
2019-06-07T22:22:37.519Z,99.90
2019-06-07T22:25:07.402Z,99.90
2019-06-07T22:27:36.250Z,99.90
2019-06-07T22:30:08.727Z,99.90
2019-06-07T22:32:37.489Z,99.90
2019-06-07T22:35:07.169Z,99.90
2019-06-07T22:37:35.964Z,99.90
2019-06-07T22:40:06.754Z,99.90
2019-06-07T22:42:35.615Z,99.90
2019-06-07T22:45:06.174Z,99.90
2019-06-07T22:47:34.959Z,99.90
2019-06-07T22:50:05.383Z,99.90
2019-06-07T22:52:33.819Z,99.90
2019-06-07T22:55:02.709Z,99.90
2019-06-07T22:57:48.895Z,99.90
2019-06-07T23:00:19.461Z,99.90
2019-06-07T23:02:48.067Z,99.90
2019-06-07T23:05:16.907Z,99.90
2019-06-07T23:07:45.650Z,99.90
2019-06-07T23:10:15.439Z,99.90
2019-06-07T23:12:44.279Z,99.90
2019-06-07T23:15:13.410Z,99.90
2019-06-07T23:17:42.191Z,99.90
2019-06-07T23:20:11.857Z,99.90
2019-06-07T23:22:40.422Z,99.90
2019-06-07T23:25:10.002Z,99.90
2019-06-07T23:27:38.535Z,99.90
2019-06-07T23:30:10.633Z,99.90
2019-06-07T23:32:39.135Z,99.90
2019-06-07T23:35:08.000Z,99.90
2019-06-07T23:37:36.902Z,99.90
2019-06-07T23:40:06.379Z,99.90
2019-06-07T23:42:34.813Z,99.90
2019-06-07T23:45:03.470Z,99.90
2019-06-07T23:47:31.963Z,99.90
2019-06-07T23:50:00.717Z,99.90
2019-06-07T23:52:29.178Z,99.90
2019-06-07T23:54:57.904Z,99.90
2019-06-07T23:57:26.338Z,99.90
2019-06-07T23:59:54.794Z,99.90
